createdAt,value
2018-02-15T15:08:12.594Z,20.87
2018-02-15T15:11:13.282Z,20.53
2018-02-15T15:13:40.936Z,19.97
2018-02-15T15:16:09.281Z,20.77
2018-02-15T15:18:36.892Z,20.07
2018-02-15T15:21:04.469Z,20.80
2018-02-15T15:23:32.079Z,21.03
2018-02-15T15:25:59.668Z,21.03
2018-02-15T15:28:27.271Z,20.30
2018-02-15T15:30:54.873Z,19.70
2018-02-15T15:33:22.448Z,20.40
2018-02-15T15:35:50.099Z,18.97
2018-02-15T15:38:18.446Z,19.43
2018-02-15T15:40:46.127Z,21.27
2018-02-15T15:43:14.326Z,21.27
2018-02-15T15:45:41.901Z,21.80
2018-02-15T15:48:09.520Z,20.70
2018-02-15T15:50:37.101Z,19.23
2018-02-15T15:53:04.689Z,19.87
2018-02-15T15:55:32.277Z,22.00
2018-02-15T15:57:59.855Z,20.73
2018-02-15T16:00:28.314Z,21.17
2018-02-15T16:02:55.903Z,21.00
2018-02-15T16:05:23.482Z,20.03
2018-02-15T16:07:51.104Z,21.70
2018-02-15T16:10:19.504Z,20.47
2018-02-15T16:12:47.137Z,23.23
2018-02-15T16:15:14.729Z,21.17
2018-02-15T16:17:43.073Z,22.53
2018-02-15T16:20:10.668Z,21.90
2018-02-15T16:22:38.246Z,20.67
2018-02-15T16:25:05.848Z,21.93
2018-02-15T16:27:33.448Z,21.27
2018-02-15T16:30:01.031Z,22.10
2018-02-15T16:32:29.409Z,21.17
2018-02-15T16:34:56.993Z,21.47
2018-02-15T16:37:24.625Z,20.53
2018-02-15T16:39:52.965Z,21.60
2018-02-15T16:42:20.552Z,21.13
2018-02-15T16:44:48.173Z,20.13
2018-02-15T16:47:16.038Z,21.80
2018-02-15T16:49:43.674Z,22.47
2018-02-15T16:52:11.262Z,21.30
2018-02-15T16:54:38.842Z,21.77
2018-02-15T16:57:07.209Z,22.13
2018-02-15T16:59:34.812Z,21.00
2018-02-15T17:02:03.197Z,22.50
2018-02-15T17:04:31.544Z,21.40
2018-02-15T17:06:59.123Z,22.83
2018-02-15T17:09:26.737Z,22.00
2018-02-15T17:11:54.316Z,21.03
2018-02-15T17:14:22.488Z,21.63
2018-02-15T17:16:50.845Z,21.20
2018-02-15T17:19:18.437Z,21.03
2018-02-15T17:21:48.035Z,21.80
2018-02-15T17:24:16.565Z,22.07
2018-02-15T17:26:45.514Z,21.67
2018-02-15T17:29:13.104Z,22.30
2018-02-15T17:31:40.681Z,21.30
2018-02-15T17:34:08.278Z,22.37
2018-02-15T17:36:35.883Z,21.30
2018-02-15T17:39:03.853Z,21.20
2018-02-15T17:41:31.449Z,21.80
2018-02-15T17:43:59.039Z,20.37
2018-02-15T17:46:26.641Z,20.57
2018-02-15T17:48:55.018Z,22.13
2018-02-15T17:51:22.640Z,20.33
2018-02-15T17:53:50.274Z,20.57
2018-02-15T17:56:20.209Z,21.73
2018-02-15T17:59:38.224Z,21.43
2018-02-15T18:02:05.828Z,20.97
2018-02-15T18:07:23.958Z,21.67
2018-02-15T18:09:51.914Z,19.83
2018-02-15T18:12:20.301Z,21.27
2018-02-15T18:14:48.673Z,21.80
2018-02-15T18:17:16.306Z,21.90
2018-02-15T18:19:44.668Z,28.47
2018-02-15T18:22:12.314Z,26.40
2018-02-15T18:24:39.951Z,24.10
2018-02-15T18:27:07.545Z,24.33
2018-02-15T18:29:35.166Z,23.50
2018-02-15T18:32:02.750Z,21.40
2018-02-15T18:34:30.389Z,19.20
2018-02-15T18:36:58.741Z,20.53
2018-02-15T18:39:26.326Z,19.23
2018-02-15T18:41:53.930Z,18.63
2018-02-15T18:44:21.566Z,18.43
2018-02-15T18:46:49.169Z,20.27
2018-02-15T18:49:17.530Z,18.90
2018-02-15T18:51:45.153Z,20.17
2018-02-15T18:54:12.740Z,21.83
2018-02-15T18:56:40.325Z,20.40
2018-02-15T18:59:07.966Z,21.87
2018-02-15T19:01:35.545Z,21.37
2018-02-15T19:04:03.170Z,18.13
2018-02-15T19:06:30.748Z,19.17
2018-02-15T19:08:58.359Z,19.70
2018-02-15T19:11:26.461Z,19.63
2018-02-15T19:13:54.070Z,19.43
2018-02-15T19:16:21.772Z,20.67
2018-02-15T19:18:49.416Z,21.40
2018-02-15T19:21:17.124Z,20.23
2018-02-15T19:23:44.803Z,20.93
2018-02-15T19:26:12.470Z,21.30
2018-02-15T19:28:40.093Z,20.70
2018-02-15T19:31:07.673Z,20.27
2018-02-15T19:33:35.375Z,20.20
2018-02-15T19:36:03.973Z,21.40
2018-02-15T19:38:32.362Z,23.37
2018-02-15T19:41:00.746Z,23.87
2018-02-15T19:43:30.240Z,23.53
2018-02-15T19:45:57.911Z,21.87
2018-02-15T19:48:25.524Z,23.47
2018-02-15T19:50:53.654Z,23.47
2018-02-15T19:53:25.395Z,23.07
2018-02-15T19:55:53.054Z,25.03
2018-02-15T19:58:20.744Z,24.90
2018-02-15T20:00:48.391Z,23.63
2018-02-15T20:03:16.073Z,22.33
2018-02-15T20:05:43.730Z,23.40
2018-02-15T20:08:12.121Z,27.17
2018-02-15T20:10:40.529Z,24.73
2018-02-15T20:13:08.999Z,28.27
2018-02-15T20:15:54.484Z,25.50
2018-02-15T20:18:22.093Z,26.37
2018-02-15T20:20:49.782Z,32.10
2018-02-15T20:23:17.625Z,30.40
2018-02-15T20:28:50.477Z,24.87
2018-02-15T20:31:18.203Z,39.00
2018-02-15T20:33:45.864Z,21.53
2018-02-15T20:36:13.526Z,35.27
2018-02-15T20:38:47.131Z,35.57
2018-02-15T20:41:14.761Z,25.70
2018-02-15T20:43:42.398Z,62.43
2018-02-15T20:46:10.101Z,29.70
2018-02-15T20:48:38.452Z,40.83
2018-02-15T20:51:11.637Z,36.67
2018-02-15T20:53:44.902Z,42.50
2018-02-15T20:56:12.508Z,37.30
2018-02-15T20:58:40.113Z,45.23
2018-02-15T21:01:07.729Z,38.20
2018-02-15T21:03:36.064Z,27.43
2018-02-15T21:06:03.665Z,21.57
2018-02-15T21:08:31.289Z,21.00
2018-02-15T21:10:58.881Z,45.13
2018-02-15T21:13:26.488Z,41.13
2018-02-15T21:15:54.072Z,26.63
2018-02-15T21:18:21.673Z,22.30
2018-02-15T21:20:49.279Z,25.10
2018-02-15T21:23:16.881Z,30.20
2018-02-15T21:25:44.495Z,21.20
2018-02-15T21:28:12.086Z,28.00
2018-02-15T21:30:39.690Z,27.73
2018-02-15T21:33:07.285Z,36.83
2018-02-15T21:35:35.660Z,26.30
2018-02-15T21:38:03.252Z,24.07
2018-02-15T21:40:31.604Z,22.73
2018-02-15T21:42:59.204Z,19.93
2018-02-15T21:45:27.596Z,34.10
2018-02-15T21:47:55.964Z,38.27
2018-02-15T21:50:23.545Z,35.57
2018-02-15T21:52:51.160Z,36.07
2018-02-15T21:55:18.745Z,34.37
2018-02-15T21:57:46.400Z,38.77
2018-02-15T22:00:14.020Z,34.47
2018-02-15T22:02:41.600Z,46.37
2018-02-15T22:05:09.206Z,51.03
2018-02-15T22:07:37.561Z,33.50
2018-02-15T22:10:05.287Z,39.80
2018-02-15T22:12:32.897Z,29.43
2018-02-15T22:15:00.501Z,34.57
2018-02-15T22:17:28.876Z,36.17
2018-02-15T22:19:56.420Z,36.40
2018-02-15T22:22:23.994Z,37.70
2018-02-15T22:24:51.532Z,29.83
2018-02-15T22:27:19.481Z,33.80
2018-02-15T22:29:47.827Z,50.17
2018-02-15T22:32:15.403Z,42.97
2018-02-15T22:34:42.971Z,56.37
2018-02-15T22:37:10.516Z,60.40
2018-02-15T22:39:38.092Z,55.80
2018-02-15T22:42:05.664Z,52.57
2018-02-15T22:44:33.272Z,46.57
2018-02-15T22:47:00.834Z,48.10
2018-02-15T22:49:28.388Z,46.77
2018-02-15T22:51:57.520Z,51.90
2018-02-15T22:54:25.140Z,41.70
2018-02-15T22:56:53.475Z,52.73
2018-02-15T22:59:21.028Z,50.63
2018-02-15T23:01:48.630Z,55.53
2018-02-15T23:04:16.196Z,60.10
2018-02-15T23:06:43.748Z,49.90
2018-02-15T23:09:11.324Z,36.17
2018-02-15T23:11:38.889Z,54.00
2018-02-15T23:14:06.451Z,49.63
2018-02-15T23:16:34.005Z,76.13
2018-02-15T23:19:02.661Z,86.90
2018-02-15T23:21:30.211Z,90.77
2018-02-15T23:23:57.753Z,96.77
2018-02-15T23:26:25.327Z,65.87
2018-02-15T23:28:52.871Z,79.83
2018-02-15T23:31:21.251Z,82.97
2018-02-15T23:33:48.784Z,86.93
2018-02-15T23:36:16.387Z,63.20
2018-02-15T23:38:43.935Z,62.20
2018-02-15T23:41:11.500Z,49.83
2018-02-15T23:43:39.073Z,75.10
2018-02-15T23:46:06.613Z,42.13
2018-02-15T23:48:34.188Z,40.07
2018-02-15T23:51:01.736Z,54.10
2018-02-15T23:53:29.315Z,62.67
2018-02-15T23:55:56.864Z,72.53
2018-02-15T23:58:24.420Z,59.43
